Time;durP1;ratioP1;P1;durP2;ratioP2;P2;SDS_P1;SDS_P2;PMS_P1;PMS_P2;Temp;Humidity;BMP_temperature;BMP_pressure;BME280_temperature;BME280_humidity;BME280_pressure;Samples;Min_cycle;Max_cycle;Signal;HPM_P1;HPM_P2
2023/05/23 00:01:38;;;;;;;3.30;2.97;;;;;;;18.21;83.14;95135.38;4363692;32;20193;-62
2023/05/23 00:04:04;;;;;;;2.23;2.00;;;;;;;18.11;82.60;95131.28;4360540;32;20201;-63
2023/05/23 00:06:29;;;;;;;2.17;2.07;;;;;;;17.95;83.18;95133.16;4361582;32;20207;-63
2023/05/23 00:08:55;;;;;;;2.53;2.33;;;;;;;17.98;83.22;95129.03;4347855;32;20246;-63
2023/05/23 00:11:25;;;;;;;2.47;2.37;;;;;;;17.91;83.24;95126.91;4356335;32;20232;-63
2023/05/23 00:13:51;;;;;;;2.13;2.03;;;;;;;17.92;83.63;95133.84;4347477;32;20208;-63
2023/05/23 00:16:17;;;;;;;3.37;2.27;;;;;;;17.96;83.88;95131.25;4356846;32;20193;-63
2023/05/23 00:18:44;;;;;;;2.73;2.53;;;;;;;17.84;82.97;95138.28;4353519;32;20203;-63
2023/05/23 00:21:10;;;;;;;2.07;1.97;;;;;;;17.93;84.07;95140.00;4355303;32;20186;-63
2023/05/23 00:23:35;;;;;;;3.53;3.33;;;;;;;17.92;83.81;95139.22;4351597;32;20201;-63
2023/05/23 00:26:00;;;;;;;2.67;2.47;;;;;;;17.93;83.27;95137.31;4354845;32;20211;-63
2023/05/23 00:28:26;;;;;;;1.87;1.83;;;;;;;17.98;83.11;95139.75;4358447;32;20254;-63
2023/05/23 00:30:52;;;;;;;2.90;2.80;;;;;;;17.97;81.82;95128.25;4361125;32;20193;-63
2023/05/23 00:33:20;;;;;;;2.50;2.40;;;;;;;17.97;83.08;95136.28;4339107;32;20197;-63
2023/05/23 00:35:46;;;;;;;2.27;2.17;;;;;;;17.93;82.61;95138.09;4336930;32;20233;-63
2023/05/23 00:38:11;;;;;;;2.67;2.43;;;;;;;17.85;82.62;95145.19;4353174;32;20215;-62
2023/05/23 00:40:37;;;;;;;3.03;2.93;;;;;;;17.80;83.33;95141.97;4355290;32;20207;-63
2023/05/23 00:43:02;;;;;;;3.47;3.30;;;;;;;17.84;83.04;95138.28;4358666;32;20225;-63
2023/05/23 00:45:27;;;;;;;3.70;1.97;;;;;;;17.83;82.69;95144.75;4357321;32;20342;-63
2023/05/23 00:47:53;;;;;;;1.90;1.80;;;;;;;17.87;84.26;95141.41;4348027;32;20201;-63
2023/05/23 00:50:19;;;;;;;3.70;2.80;;;;;;;17.96;84.80;95139.31;4356093;32;20209;-63
2023/05/23 00:52:46;;;;;;;1.93;1.83;;;;;;;17.90;84.03;95138.78;4355633;32;20198;-63
2023/05/23 00:55:13;;;;;;;2.90;2.70;;;;;;;18.00;83.65;95138.28;4355444;32;20194;-63
2023/05/23 00:57:39;;;;;;;3.30;3.10;;;;;;;18.02;83.60;95138.72;4347915;32;20193;-62
2023/05/23 01:00:09;;;;;;;1.97;1.87;;;;;;;17.97;84.67;95146.25;4358240;32;20213;-63
2023/05/23 01:02:44;;;;;;;3.07;2.87;;;;;;;17.83;83.75;95138.63;4360120;32;20189;-63
2023/05/23 01:05:13;;;;;;;2.63;2.50;;;;;;;17.84;83.90;95143.63;4348834;32;20215;-63
2023/05/23 01:07:42;;;;;;;3.73;3.43;;;;;;;17.90;83.22;95136.09;4353198;32;20201;-63
2023/05/23 01:10:10;;;;;;;2.47;2.30;;;;;;;17.91;83.67;95139.56;4346678;32;20211;-63
2023/05/23 01:12:57;;;;;;;3.10;2.93;;;;;;;17.94;84.56;95141.56;4356640;32;20194;-63
2023/05/23 01:15:39;;;;;;;2.63;2.53;;;;;;;17.96;83.40;95139.31;4340181;32;20201;-63
2023/05/23 01:18:13;;;;;;;3.50;2.27;;;;;;;17.89;84.23;95144.50;4354121;32;20200;-63
2023/05/23 01:21:00;;;;;;;2.93;2.27;;;;;;;17.95;84.29;95143.91;4357743;32;20253;-63
2023/05/23 01:24:03;;;;;;;5.17;2.67;;;;;;;17.89;83.64;95160.59;4345739;32;20232;-63
2023/05/23 01:26:56;;;;;;;4.30;2.93;;;;;;;17.94;84.21;95150.41;4365646;32;20231;-63
2023/05/23 01:29:27;;;;;;;2.57;2.37;;;;;;;17.83;83.93;95152.81;4367551;32;20193;-63
2023/05/23 01:31:56;;;;;;;3.33;3.23;;;;;;;17.99;84.66;95157.41;4345226;32;20197;-63
2023/05/23 01:34:21;;;;;;;3.23;3.03;;;;;;;18.01;83.58;95155.97;4350406;32;20190;-60
2023/05/23 01:36:52;;;;;;;2.50;2.40;;;;;;;17.94;83.58;95158.44;4335983;32;20207;-59
2023/05/23 01:39:18;;;;;;;1.87;1.77;;;;;;;17.96;84.29;95160.78;4346979;32;20237;-60
2023/05/23 01:41:43;;;;;;;2.77;2.60;;;;;;;17.99;83.85;95155.53;4362373;32;20185;-59
2023/05/23 01:44:08;;;;;;;2.67;2.57;;;;;;;17.92;84.21;95151.84;4363924;32;20205;-60
2023/05/23 01:46:34;;;;;;;2.30;2.20;;;;;;;17.83;84.41;95155.50;4365365;32;20204;-60
2023/05/23 01:49:03;;;;;;;2.50;2.40;;;;;;;17.78;84.13;95155.75;4352596;32;20192;-60
2023/05/23 01:51:29;;;;;;;4.10;3.80;;;;;;;17.82;83.48;95161.22;4346699;32;20280;-59
2023/05/23 01:53:55;;;;;;;2.97;2.87;;;;;;;17.91;83.70;95169.09;4368650;32;20193;-59
2023/05/23 01:56:21;;;;;;;2.53;2.43;;;;;;;17.75;82.82;95159.09;4364749;32;20208;-59
2023/05/23 01:58:46;;;;;;;3.03;2.93;;;;;;;17.77;83.67;95164.91;4337297;32;20205;-59
2023/05/23 02:01:12;;;;;;;2.50;2.40;;;;;;;17.84;83.81;95162.44;4368359;32;20271;-60
2023/05/23 02:03:38;;;;;;;3.73;2.70;;;;;;;17.79;84.29;95169.94;4368418;32;20200;-60
2023/05/23 02:06:03;;;;;;;2.67;2.57;;;;;;;17.76;83.69;95168.72;4355934;32;20276;-59
2023/05/23 02:08:28;;;;;;;2.97;2.67;;;;;;;17.81;84.65;95175.75;4363629;32;20188;-60
2023/05/23 02:10:54;;;;;;;2.67;2.47;;;;;;;17.78;83.47;95171.84;4367292;32;20189;-59
2023/05/23 02:13:19;;;;;;;3.33;3.03;;;;;;;17.74;84.46;95176.31;4352308;32;20185;-59
2023/05/23 02:15:44;;;;;;;5.23;3.17;;;;;;;17.78;82.96;95177.22;4359926;32;20263;-59
2023/05/23 02:18:10;;;;;;;3.43;3.03;;;;;;;17.76;84.16;95174.09;4366152;32;20189;-60
2023/05/23 02:20:35;;;;;;;3.10;2.90;;;;;;;17.72;83.59;95173.19;4354092;32;20219;-59
2023/05/23 02:23:00;;;;;;;1.73;1.73;;;;;;;17.66;83.90;95176.50;4359271;32;20181;-60
2023/05/23 02:25:26;;;;;;;3.43;3.13;;;;;;;17.70;84.58;95175.44;4354065;32;20193;-60
2023/05/23 02:27:51;;;;;;;2.73;2.53;;;;;;;17.68;84.02;95184.94;4358153;32;20239;-60
2023/05/23 02:30:16;;;;;;;3.90;3.70;;;;;;;17.68;84.94;95177.69;4347101;32;20269;-60
2023/05/23 02:32:42;;;;;;;2.27;2.17;;;;;;;17.60;85.45;95183.19;4351270;32;20197;-60
2023/05/23 02:35:07;;;;;;;2.70;2.57;;;;;;;17.67;85.55;95178.81;4366019;32;20192;-61
2023/05/23 02:37:33;;;;;;;2.50;2.40;;;;;;;17.61;84.50;95182.84;4343724;32;20189;-60
2023/05/23 02:39:58;;;;;;;1.60;1.60;;;;;;;17.50;84.86;95184.44;4361364;32;20184;-60
2023/05/23 02:42:23;;;;;;;6.13;3.43;;;;;;;17.55;85.65;95183.41;4359291;32;20213;-59
2023/05/23 02:44:49;;;;;;;2.30;2.20;;;;;;;17.51;84.48;95194.81;4356458;32;20212;-59
2023/05/23 02:47:14;;;;;;;3.10;3.00;;;;;;;17.44;85.30;95200.00;4348124;32;20192;-59
2023/05/23 02:49:39;;;;;;;5.17;3.67;;;;;;;17.36;85.58;95200.91;4346596;32;20189;-60
2023/05/23 02:52:06;;;;;;;3.03;2.83;;;;;;;17.21;85.79;95203.50;4367414;32;20260;-59
2023/05/23 02:54:31;;;;;;;3.40;3.17;;;;;;;17.15;87.96;95201.06;4364721;32;20227;-60
2023/05/23 02:56:57;;;;;;;3.13;2.83;;;;;;;17.07;88.00;95206.53;4363380;32;20190;-59
2023/05/23 02:59:22;;;;;;;2.67;2.57;;;;;;;17.06;87.53;95196.91;4360627;32;20253;-60
2023/05/23 03:01:48;;;;;;;3.97;3.63;;;;;;;17.04;88.35;95197.25;4362795;32;20213;-59
2023/05/23 03:04:13;;;;;;;2.37;2.27;;;;;;;17.11;89.37;95196.69;4369953;32;20247;-60
2023/05/23 03:06:40;;;;;;;3.40;3.20;;;;;;;17.30;89.08;95194.19;4357707;32;20181;-60
2023/05/23 03:09:07;;;;;;;4.73;3.47;;;;;;;17.30;88.09;95199.56;4349222;32;20190;-59
2023/05/23 03:11:32;;;;;;;5.37;4.17;;;;;;;17.29;88.84;95198.00;4363949;32;20189;-60
2023/05/23 03:13:57;;;;;;;2.93;2.80;;;;;;;17.31;87.84;95197.66;4354574;32;20260;-59
2023/05/23 03:16:23;;;;;;;4.07;3.70;;;;;;;17.42;88.26;95194.19;4349350;32;20220;-60
2023/05/23 03:18:48;;;;;;;4.00;3.70;;;;;;;17.34;88.05;95199.69;4362635;32;20216;-59
2023/05/23 03:21:13;;;;;;;2.33;2.23;;;;;;;17.35;88.19;95203.94;4350865;32;20182;-60
2023/05/23 03:23:39;;;;;;;5.27;4.50;;;;;;;17.23;89.25;95198.59;4360615;32;20189;-60
2023/05/23 03:26:05;;;;;;;2.90;2.80;;;;;;;17.36;88.29;95200.91;4345956;32;20260;-59
2023/05/23 03:28:31;;;;;;;5.13;4.63;;;;;;;17.29;87.97;95197.22;4364690;32;20185;-60
2023/05/23 03:30:56;;;;;;;2.77;2.67;;;;;;;17.37;88.21;95201.69;4360785;32;20282;-59
2023/05/23 03:33:21;;;;;;;6.13;3.70;;;;;;;17.29;89.00;95202.59;4362595;32;20189;-60
2023/05/23 03:35:47;;;;;;;2.77;2.57;;;;;;;17.34;88.65;95203.12;4358382;32;20252;-60
2023/05/23 03:38:12;;;;;;;3.23;3.13;;;;;;;17.39;88.04;95202.13;4353165;32;20233;-59
2023/05/23 03:40:37;;;;;;;3.03;2.83;;;;;;;17.36;88.75;95206.25;4369201;32;20231;-59
2023/05/23 03:43:04;;;;;;;3.53;3.23;;;;;;;17.24;89.24;95206.31;4368197;32;20244;-59
2023/05/23 03:45:31;;;;;;;3.63;3.53;;;;;;;17.32;89.07;95205.38;4352904;32;20245;-59
2023/05/23 03:47:56;;;;;;;3.70;3.50;;;;;;;17.20;88.68;95210.00;4361306;32;20251;-61
2023/05/23 03:50:22;;;;;;;7.77;3.53;;;;;;;17.26;89.24;95197.91;4347144;32;20194;-60
2023/05/23 03:52:47;;;;;;;3.73;3.43;;;;;;;17.29;88.75;95202.59;4348441;32;20200;-59
2023/05/23 03:55:12;;;;;;;2.40;2.30;;;;;;;17.17;89.31;95206.09;4368671;32;20199;-59
2023/05/23 03:57:37;;;;;;;3.60;3.40;;;;;;;17.26;89.66;95213.97;4362595;32;20207;-60
2023/05/23 04:00:05;;;;;;;2.53;2.43;;;;;;;17.15;89.36;95211.78;4356236;32;20240;-60
2023/05/23 04:02:31;;;;;;;3.70;3.50;;;;;;;17.21;90.07;95212.34;4351263;32;20198;-60
2023/05/23 04:04:57;;;;;;;4.07;3.53;;;;;;;17.13;90.86;95211.34;4359279;32;20220;-59
2023/05/23 04:07:22;;;;;;;2.67;2.57;;;;;;;17.16;90.07;95205.31;4343379;32;20205;-59
2023/05/23 04:09:47;;;;;;;4.07;3.70;;;;;;;17.11;90.20;95213.56;4351366;32;20202;-60
2023/05/23 04:12:14;;;;;;;3.90;3.63;;;;;;;17.12;89.83;95217.81;4343702;32;20193;-60
2023/05/23 04:14:39;;;;;;;3.23;3.13;;;;;;;17.15;90.47;95219.81;4348868;32;20197;-60
2023/05/23 04:17:04;;;;;;;4.60;4.13;;;;;;;17.16;90.40;95216.03;4368729;32;20232;-59
2023/05/23 04:19:30;;;;;;;3.23;2.57;;;;;;;17.07;90.37;95220.72;4353720;32;20262;-59
2023/05/23 04:21:55;;;;;;;4.57;4.27;;;;;;;17.06;90.94;95221.81;4354085;32;20240;-60
2023/05/23 04:24:21;;;;;;;4.60;4.30;;;;;;;17.16;90.25;95221.37;4345889;32;20254;-59
2023/05/23 04:26:46;;;;;;;3.90;3.70;;;;;;;17.04;90.37;95224.06;4364329;32;20220;-60
2023/05/23 04:29:11;;;;;;;3.13;3.03;;;;;;;17.09;90.71;95229.19;4363970;32;20196;-59
2023/05/23 04:31:37;;;;;;;3.17;2.77;;;;;;;17.15;89.79;95235.91;4344140;32;20185;-60
2023/05/23 04:34:02;;;;;;;4.50;3.57;;;;;;;17.12;91.33;95244.63;4359148;32;20240;-59
2023/05/23 04:36:29;;;;;;;5.27;4.77;;;;;;;17.11;91.32;95242.28;4346560;32;20264;-60
2023/05/23 04:38:54;;;;;;;4.30;4.00;;;;;;;17.02;90.40;95239.72;4361066;32;20193;-59
2023/05/23 04:41:22;;;;;;;4.13;3.93;;;;;;;16.97;91.21;95250.66;4354824;32;20215;-60
2023/05/23 04:43:53;;;;;;;4.97;4.67;;;;;;;17.00;91.17;95250.00;4358052;32;20189;-60
2023/05/23 04:46:21;;;;;;;4.47;4.13;;;;;;;16.99;91.69;95253.00;4363078;32;20185;-59
2023/05/23 04:48:47;;;;;;;3.93;3.73;;;;;;;16.91;91.16;95249.31;4353424;32;20220;-60
2023/05/23 04:51:12;;;;;;;5.10;4.70;;;;;;;16.97;91.17;95245.31;4348599;32;20215;-59
2023/05/23 04:53:39;;;;;;;4.63;4.33;;;;;;;17.01;91.35;95240.06;4360477;32;20223;-60
2023/05/23 04:56:07;;;;;;;4.70;4.30;;;;;;;16.97;92.09;95245.31;4349352;32;20211;-59
2023/05/23 04:58:33;;;;;;;5.10;4.67;;;;;;;17.00;92.32;95250.00;4354298;32;20185;-59
2023/05/23 05:00:58;;;;;;;5.87;5.37;;;;;;;16.96;91.90;95245.63;4352913;32;20310;-59
2023/05/23 05:03:24;;;;;;;4.07;3.87;;;;;;;17.04;92.29;95240.16;4361532;32;20204;-59
2023/05/23 05:05:49;;;;;;;4.67;4.37;;;;;;;17.08;92.35;95253.66;4363110;32;20189;-59
2023/05/23 05:08:18;;;;;;;4.40;4.10;;;;;;;17.16;91.98;95253.56;4357184;32;20221;-59
2023/05/23 05:10:44;;;;;;;5.53;5.03;;;;;;;17.18;91.34;95262.06;4361829;32;20223;-60
2023/05/23 05:13:09;;;;;;;4.87;4.37;;;;;;;17.13;91.61;95256.12;4357108;32;20184;-59
2023/05/23 05:15:35;;;;;;;3.63;3.43;;;;;;;17.22;92.19;95250.66;4356286;32;20201;-59
2023/05/23 05:18:00;;;;;;;3.77;3.57;;;;;;;17.11;91.98;95255.69;4355171;32;20215;-60
2023/05/23 05:20:25;;;;;;;5.37;4.97;;;;;;;17.24;91.64;95256.47;4361361;32;20253;-60
2023/05/23 05:22:56;;;;;;;5.10;4.80;;;;;;;17.34;91.37;95259.47;4362238;32;20189;-59
2023/05/23 05:25:21;;;;;;;3.03;2.93;;;;;;;17.29;90.96;95256.22;4347932;32;20193;-59
2023/05/23 05:27:46;;;;;;;3.73;3.53;;;;;;;17.27;91.18;95255.78;4352844;32;20193;-60
2023/05/23 05:30:12;;;;;;;5.03;4.73;;;;;;;17.38;91.30;95246.94;4347175;32;20237;-60
2023/05/23 05:32:37;;;;;;;3.87;3.57;;;;;;;17.33;90.83;95249.06;4365772;32;20193;-60
2023/05/23 05:35:03;;;;;;;5.67;5.13;;;;;;;17.26;91.71;95251.53;4367604;32;20264;-59
2023/05/23 05:37:29;;;;;;;6.30;4.73;;;;;;;17.34;91.45;95248.72;4361822;32;20283;-60
2023/05/23 05:39:55;;;;;;;4.47;4.23;;;;;;;17.32;91.68;95245.59;4361435;32;20300;-60
2023/05/23 05:42:21;;;;;;;7.03;4.67;;;;;;;17.29;91.34;95248.16;4362111;32;20199;-59
2023/05/23 05:44:46;;;;;;;5.20;4.83;;;;;;;17.43;91.12;95246.72;4367178;32;20201;-60
2023/05/23 05:47:12;;;;;;;3.93;3.73;;;;;;;17.48;91.15;95248.38;4368566;32;20264;-60
2023/05/23 05:49:38;;;;;;;4.17;3.87;;;;;;;17.50;91.14;95251.50;4364113;32;20197;-60
2023/05/23 05:52:05;;;;;;;4.83;4.53;;;;;;;17.48;91.04;95251.81;4365735;32;20193;-60
2023/05/23 05:54:31;;;;;;;3.93;3.63;;;;;;;17.61;90.83;95247.22;4363342;32;20186;-60
2023/05/23 05:56:56;;;;;;;4.20;4.00;;;;;;;17.74;90.15;95250.69;4357592;32;20254;-60
2023/05/23 05:59:21;;;;;;;5.67;5.17;;;;;;;17.83;90.02;95257.47;4351947;32;20238;-60
2023/05/23 06:01:47;;;;;;;3.87;3.67;;;;;;;17.91;89.51;95274.56;4366808;32;20211;-60
2023/05/23 06:04:13;;;;;;;5.43;5.13;;;;;;;18.01;88.81;95265.25;4365039;32;20203;-60
2023/05/23 06:06:38;;;;;;;4.57;4.27;;;;;;;17.98;89.05;95263.25;4365879;32;20236;-62
2023/05/23 06:09:04;;;;;;;5.13;4.77;;;;;;;18.01;89.33;95273.31;4359142;32;20204;-60
2023/05/23 06:11:29;;;;;;;3.20;3.10;;;;;;;18.07;89.15;95274.63;4350833;32;20189;-60
2023/05/23 06:13:55;;;;;;;5.17;4.80;;;;;;;18.18;88.32;95275.69;4366431;32;20267;-60
2023/05/23 06:16:20;;;;;;;4.10;3.70;;;;;;;18.21;88.20;95275.00;4356865;32;20198;-60
2023/05/23 06:18:45;;;;;;;3.90;3.70;;;;;;;18.28;87.81;95277.91;4354279;32;20227;-60
2023/05/23 06:21:10;;;;;;;5.13;4.77;;;;;;;18.26;88.03;95271.31;4359277;32;20229;-60
2023/05/23 06:23:36;;;;;;;6.00;5.60;;;;;;;18.30;87.65;95275.63;4345480;32;20204;-60
2023/05/23 06:26:01;;;;;;;4.77;4.47;;;;;;;18.32;87.22;95269.91;4361978;32;20193;-59
2023/05/23 06:28:26;;;;;;;5.17;4.83;;;;;;;18.38;86.94;95273.91;4365481;32;20236;-59
2023/05/23 06:30:52;;;;;;;4.67;4.43;;;;;;;18.42;86.75;95272.88;4361292;32;20250;-60
2023/05/23 06:33:17;;;;;;;4.23;3.83;;;;;;;18.39;87.05;95275.47;4351948;32;20223;-60
2023/05/23 06:35:42;;;;;;;4.00;3.80;;;;;;;18.48;86.15;95276.13;4351570;32;20193;-60
2023/05/23 06:38:08;;;;;;;3.43;3.30;;;;;;;18.56;85.15;95277.84;4371246;32;20197;-60
2023/05/23 06:40:33;;;;;;;4.53;4.13;;;;;;;18.53;85.33;95279.31;4364293;32;20224;-59
2023/05/23 06:42:58;;;;;;;4.27;3.87;;;;;;;18.65;85.19;95283.09;4352712;32;20272;-60
2023/05/23 06:45:24;;;;;;;3.97;3.67;;;;;;;18.67;85.37;95275.47;4347080;32;20181;-59
2023/05/23 06:47:49;;;;;;;3.97;3.67;;;;;;;18.71;85.03;95276.31;4351505;32;20217;-59
2023/05/23 06:50:14;;;;;;;4.93;4.60;;;;;;;18.77;84.75;95277.63;4345530;32;20200;-59
2023/05/23 06:52:41;;;;;;;5.43;5.07;;;;;;;18.76;84.71;95282.22;4362044;32;20215;-59
2023/05/23 06:55:07;;;;;;;5.20;4.77;;;;;;;18.66;84.88;95282.75;4368989;32;20189;-59
2023/05/23 06:57:32;;;;;;;9.17;5.20;;;;;;;18.67;85.36;95286.22;4356870;32;20226;-60
2023/05/23 06:59:58;;;;;;;5.73;5.20;;;;;;;18.76;85.11;95278.75;4345492;32;20283;-59
2023/05/23 07:02:23;;;;;;;4.57;4.30;;;;;;;18.81;84.96;95284.66;4354568;32;20249;-59
2023/05/23 07:04:48;;;;;;;3.73;3.50;;;;;;;18.87;84.91;95285.97;4365921;32;20216;-59
2023/05/23 07:07:14;;;;;;;4.10;3.90;;;;;;;18.91;84.97;95291.44;4363367;32;20236;-59
2023/05/23 07:09:39;;;;;;;4.83;4.53;;;;;;;19.03;84.68;95288.66;4369791;32;20218;-59
2023/05/23 07:12:05;;;;;;;4.63;4.20;;;;;;;19.07;84.32;95283.37;4354863;32;20197;-59
2023/05/23 07:14:31;;;;;;;4.13;3.83;;;;;;;19.06;84.47;95290.66;4359253;32;20219;-60
2023/05/23 07:16:56;;;;;;;5.17;4.40;;;;;;;19.15;84.03;95288.56;4354744;32;20241;-60
2023/05/23 07:19:21;;;;;;;4.97;4.53;;;;;;;19.26;83.74;95288.03;4363372;32;20240;-61
2023/05/23 07:21:47;;;;;;;4.10;3.80;;;;;;;19.39;83.46;95284.09;4355535;32;20233;-60
2023/05/23 07:24:15;;;;;;;5.00;4.60;;;;;;;19.51;82.62;95289.41;4363993;32;20244;-59
2023/05/23 07:26:40;;;;;;;6.10;5.60;;;;;;;19.49;82.53;95299.72;4353645;32;20205;-60
2023/05/23 07:29:06;;;;;;;9.43;4.97;;;;;;;19.51;81.78;95302.88;4365168;32;20207;-60
2023/05/23 07:31:32;;;;;;;6.20;5.80;;;;;;;19.42;82.32;95302.25;4363517;32;20211;-60
2023/05/23 07:33:57;;;;;;;4.27;4.00;;;;;;;19.45;82.48;95299.63;4368302;32;20223;-60
2023/05/23 07:36:22;;;;;;;4.47;4.17;;;;;;;19.40;82.76;95301.81;4351923;32;20212;-60
2023/05/23 07:38:48;;;;;;;5.90;5.50;;;;;;;19.45;82.99;95305.03;4365179;32;20184;-60
2023/05/23 07:41:13;;;;;;;4.50;4.30;;;;;;;19.41;82.25;95303.38;4366014;32;20197;-59
2023/05/23 07:43:39;;;;;;;3.80;3.60;;;;;;;19.31;83.12;95302.00;4372283;32;20192;-62
2023/05/23 07:46:05;;;;;;;6.30;5.70;;;;;;;19.32;83.38;95297.41;4353259;32;20185;-60
2023/05/23 07:48:30;;;;;;;5.77;5.37;;;;;;;19.43;82.65;95301.13;4360292;32;20207;-60
2023/05/23 07:50:56;;;;;;;4.83;4.60;;;;;;;19.50;81.93;95307.47;4351855;32;20197;-61
2023/05/23 07:53:21;;;;;;;5.47;5.17;;;;;;;19.53;82.16;95306.00;4357790;32;20202;-60
2023/05/23 07:55:47;;;;;;;3.80;3.60;;;;;;;19.44;82.87;95310.75;4369035;32;20269;-61
2023/05/23 07:58:12;;;;;;;5.93;5.47;;;;;;;19.48;81.92;95308.91;4362151;32;20207;-61
2023/05/23 08:00:37;;;;;;;4.10;3.90;;;;;;;19.41;82.40;95312.22;4351579;32;20260;-60
2023/05/23 08:03:03;;;;;;;6.17;5.50;;;;;;;19.36;82.67;95306.31;4355437;32;20193;-60
2023/05/23 08:05:28;;;;;;;5.50;5.20;;;;;;;19.33;82.95;95315.13;4360658;32;20331;-60
2023/05/23 08:07:54;;;;;;;4.97;4.43;;;;;;;19.33;81.97;95317.81;4358940;32;20283;-60
2023/05/23 08:10:19;;;;;;;5.27;4.87;;;;;;;19.15;82.91;95312.75;4345876;32;20211;-60
2023/05/23 08:12:44;;;;;;;6.30;4.97;;;;;;;19.26;82.85;95320.31;4367293;32;20248;-60
2023/05/23 08:15:10;;;;;;;7.33;5.33;;;;;;;19.19;83.63;95316.31;4350288;32;20259;-60
2023/05/23 08:17:35;;;;;;;4.17;3.87;;;;;;;19.15;83.28;95318.12;4359523;32;20207;-60
2023/05/23 08:20:02;;;;;;;5.17;4.83;;;;;;;19.14;83.53;95316.56;4347462;32;20193;-60
2023/05/23 08:22:27;;;;;;;6.40;5.97;;;;;;;19.17;83.73;95318.56;4352880;32;20252;-60
2023/05/23 08:24:52;;;;;;;5.70;5.20;;;;;;;19.26;83.26;95323.00;4355129;32;20211;-61
2023/05/23 08:27:18;;;;;;;5.67;5.27;;;;;;;19.16;83.56;95322.38;4370866;32;20232;-60
2023/05/23 08:29:43;;;;;;;5.43;5.10;;;;;;;19.26;83.75;95323.00;4367488;32;20216;-60
2023/05/23 08:32:08;;;;;;;5.83;5.43;;;;;;;19.42;83.16;95321.06;4365357;32;20197;-62
2023/05/23 08:34:34;;;;;;;5.43;5.13;;;;;;;19.46;82.85;95320.03;4367487;32;20241;-60
2023/05/23 08:36:59;;;;;;;6.43;5.10;;;;;;;19.46;82.32;95328.09;4357279;32;20194;-61
2023/05/23 08:39:25;;;;;;;5.37;5.07;;;;;;;19.51;81.55;95319.03;4359166;32;20204;-61
2023/05/23 08:41:51;;;;;;;4.60;4.27;;;;;;;19.54;81.86;95331.75;4345583;32;20193;-60
2023/05/23 08:44:16;;;;;;;5.70;5.27;;;;;;;19.60;81.15;95330.38;4345212;32;20253;-61
2023/05/23 08:46:46;;;;;;;5.90;5.20;;;;;;;19.43;81.33;95334.19;4357761;32;20213;-61
2023/05/23 08:49:13;;;;;;;5.47;5.13;;;;;;;19.46;81.20;95338.09;4351810;32;20228;-60
2023/05/23 08:51:42;;;;;;;6.37;5.93;;;;;;;19.47;81.31;95342.34;4360825;32;20197;-60
2023/05/23 08:54:08;;;;;;;6.03;5.53;;;;;;;19.46;80.98;95338.09;4356225;32;20207;-60
2023/05/23 08:56:34;;;;;;;5.43;5.03;;;;;;;19.46;80.69;95333.50;4361455;32;20185;-61
2023/05/23 08:59:00;;;;;;;8.57;6.13;;;;;;;19.29;81.88;95338.47;4354140;32;20244;-60
2023/05/23 09:01:26;;;;;;;4.53;4.23;;;;;;;19.30;81.84;95340.81;4358424;32;20190;-61
2023/05/23 09:03:52;;;;;;;5.20;4.80;;;;;;;19.28;82.27;95337.69;4355322;32;20193;-60
2023/05/23 09:06:20;;;;;;;5.50;5.17;;;;;;;19.32;82.07;95345.84;4357738;32;20252;-60
2023/05/23 09:08:45;;;;;;;7.93;7.23;;;;;;;19.36;81.38;95344.78;4356965;32;20254;-61
2023/05/23 09:11:12;;;;;;;8.97;8.03;;;;;;;19.25;81.82;95349.13;4360271;32;20193;-60
2023/05/23 09:13:41;;;;;;;5.07;4.77;;;;;;;19.45;81.26;95341.91;4363246;32;20203;-60
2023/05/23 09:16:09;;;;;;;5.80;5.30;;;;;;;19.49;80.79;95348.16;4376763;32;20266;-61
2023/05/23 09:18:40;;;;;;;5.83;5.40;;;;;;;19.56;81.80;95351.03;4357599;32;20200;-60
2023/05/23 09:21:07;;;;;;;6.20;5.60;;;;;;;19.67;81.14;95349.38;4371466;32;20212;-61
2023/05/23 09:23:40;;;;;;;4.87;4.47;;;;;;;19.65;80.36;95361.63;4360603;32;20197;-60
2023/05/23 09:26:12;;;;;;;5.60;5.17;;;;;;;19.59;80.54;95355.72;4365310;32;20189;-60
2023/05/23 09:28:39;;;;;;;5.33;4.93;;;;;;;19.52;81.92;95353.66;4363699;32;20196;-60
2023/05/23 09:31:06;;;;;;;6.80;6.30;;;;;;;19.45;81.90;95358.84;4364940;32;20231;-60
2023/05/23 09:33:48;;;;;;;5.17;4.87;;;;;;;19.50;81.82;95349.75;4362776;32;20185;-60
2023/05/23 09:36:15;;;;;;;6.37;5.03;;;;;;;19.37;82.90;95350.94;4358648;32;20192;-61
2023/05/23 09:38:43;;;;;;;5.63;5.27;;;;;;;19.47;82.16;95347.72;4358345;32;20204;-62
2023/05/23 09:41:12;;;;;;;6.27;5.77;;;;;;;19.55;81.87;95346.78;4372753;32;20189;-64
2023/05/23 09:43:39;;;;;;;5.87;5.37;;;;;;;19.52;82.08;95336.72;4377353;32;20199;-61
2023/05/23 09:46:11;;;;;;;6.00;5.50;;;;;;;19.42;81.95;95351.47;4356322;32;20207;-60
2023/05/23 09:48:37;;;;;;;6.67;6.23;;;;;;;19.39;82.33;95351.37;4362371;32;20193;-61
2023/05/23 09:51:04;;;;;;;4.73;4.10;;;;;;;19.39;82.17;95365.59;4354550;32;20245;-61
2023/05/23 09:53:30;;;;;;;5.43;5.03;;;;;;;19.42;81.96;95358.75;4360779;32;20220;-60
2023/05/23 09:55:58;;;;;;;9.87;5.13;;;;;;;19.37;82.11;95350.94;4362532;32;20192;-60
2023/05/23 09:58:26;;;;;;;5.03;4.73;;;;;;;19.42;82.22;95362.22;4348470;32;20189;-61
2023/05/23 10:00:55;;;;;;;6.70;6.20;;;;;;;19.40;82.37;95355.62;4356046;32;20227;-60
2023/05/23 10:03:28;;;;;;;6.03;5.57;;;;;;;19.28;82.44;95361.09;4343523;32;20260;-61
2023/05/23 10:05:58;;;;;;;6.37;5.97;;;;;;;19.35;81.50;95350.50;4363577;32;20188;-60
2023/05/23 10:08:30;;;;;;;4.60;4.37;;;;;;;19.25;81.51;95357.19;4357506;32;20201;-60
2023/05/23 10:10:55;;;;;;;6.47;5.97;;;;;;;19.38;81.11;95357.88;4367388;32;20193;-60
2023/05/23 10:13:24;;;;;;;6.60;5.90;;;;;;;19.27;81.41;95351.47;4356650;32;20188;-61
2023/05/23 10:15:53;;;;;;;5.97;5.47;;;;;;;19.25;82.11;95356.41;4361512;32;20297;-60
2023/05/23 10:18:25;;;;;;;7.00;6.40;;;;;;;19.37;81.25;95345.56;4362794;32;20263;-61
2023/05/23 10:20:54;;;;;;;4.70;4.50;;;;;;;19.48;81.63;95339.31;4369980;32;20197;-61
2023/05/23 10:23:20;;;;;;;33.27;7.00;;;;;;;19.50;81.09;95344.37;4364423;32;20264;-61
2023/05/23 10:25:46;;;;;;;8.47;6.50;;;;;;;19.53;81.19;95341.00;4351584;32;20244;-61
2023/05/23 10:28:12;;;;;;;6.57;5.97;;;;;;;19.46;81.72;95346.94;4365038;32;20188;-61
2023/05/23 10:30:39;;;;;;;7.30;6.70;;;;;;;19.56;80.72;95334.88;4341150;32;20204;-60
2023/05/23 10:33:42;;;;;;;5.00;4.60;;;;;;;19.57;80.46;95341.81;4383726;32;20196;-61
2023/05/23 10:36:18;;;;;;;5.17;4.87;;;;;;;19.49;80.50;95342.78;4366416;32;20256;-61
2023/05/23 10:39:24;;;;;;;6.53;6.00;;;;;;;19.43;79.62;95334.19;4357626;32;20188;-60
2023/05/23 10:41:57;;;;;;;8.60;7.90;;;;;;;19.46;80.40;95333.50;4351440;32;20203;-61
2023/05/23 10:44:27;;;;;;;5.67;5.37;;;;;;;19.49;80.59;95332.00;4356849;32;20201;-61
2023/05/23 10:46:57;;;;;;;7.80;7.30;;;;;;;19.46;80.63;95335.41;4363828;32;20218;-60
2023/05/23 10:49:40;;;;;;;6.23;5.80;;;;;;;19.49;80.05;95329.31;4346960;32;20189;-60
2023/05/23 10:52:06;;;;;;;4.50;4.30;;;;;;;19.38;80.12;95347.12;4356381;32;20217;-60
2023/05/23 10:54:46;;;;;;;5.33;4.83;;;;;;;19.37;79.08;95342.84;4358076;32;20217;-61
2023/05/23 10:57:15;;;;;;;4.83;4.53;;;;;;;19.25;79.52;95348.34;4355198;32;20193;-61
2023/05/23 10:59:41;;;;;;;5.27;4.87;;;;;;;19.39;79.06;95348.69;4361636;32;20239;-59
2023/05/23 11:02:23;;;;;;;5.27;4.97;;;;;;;19.46;78.53;95348.84;4361300;32;20181;-60
2023/05/23 11:05:19;;;;;;;4.87;4.57;;;;;;;19.53;77.44;95346.38;4352456;32;20190;-60
2023/05/23 11:07:45;;;;;;;3.80;3.60;;;;;;;19.60;77.13;95343.03;4354297;32;20188;-61
2023/05/23 11:10:12;;;;;;;5.23;4.83;;;;;;;19.81;76.66;95338.91;4374792;32;20193;-60
2023/05/23 11:12:43;;;;;;;5.47;5.00;;;;;;;20.05;75.89;95339.81;4358545;32;20181;-60
2023/05/23 11:15:19;;;;;;;5.53;4.27;;;;;;;20.13;75.75;95331.53;4349296;32;20194;-60
2023/05/23 11:17:57;;;;;;;5.33;4.93;;;;;;;20.19;75.88;95330.09;4355767;32;20231;-60
2023/05/23 11:20:27;;;;;;;7.93;6.00;;;;;;;20.21;75.73;95324.34;4361209;32;20210;-60
2023/05/23 11:23:01;;;;;;;6.33;5.90;;;;;;;20.24;75.19;95331.72;4362756;32;20197;-60
2023/05/23 11:26:02;;;;;;;4.33;4.10;;;;;;;20.21;73.90;95319.75;4366682;32;20199;-60
2023/05/23 11:28:27;;;;;;;9.33;6.27;;;;;;;20.27;74.17;95325.62;4290730;33;20198;-60
2023/05/23 11:30:53;;;;;;;3.20;3.10;;;;;;;20.34;73.91;95317.69;4347381;32;20231;-60
2023/05/23 11:33:19;;;;;;;3.23;3.03;;;;;;;20.26;73.85;95305.22;4366592;32;20189;-60
2023/05/23 11:35:47;;;;;;;3.70;3.50;;;;;;;20.35;71.97;95313.87;4352365;32;20282;-61